Terminal Aerodrome Forecast
Issued by NWS Northern Indiana

Home | Current Version | Previous Version | Graphics & Text | Print | Product List | Glossary On
Versions: 1 2 3 4 5 6 7 8 9 10 11 12 13 14
000
FTUS43 KIWX 211100
TAFFWA
TAF
KFWA 211120Z 2112/2212 35005KT P6SM SCT050 BKN090
     FM211700 30010G15KT P6SM BKN120
     FM212100 29010KT P6SM SKC=

USA.gov is the U.S. government's official web portal to all federal, state and local government web resources and services.